sensor_id;sensor_type;location;lat;lon;timestamp;temperature;humidity
68026;SHT31;54819;48.030;14.710;2023-07-22T00:00:38;18.65;66.87
68026;SHT31;54819;48.030;14.710;2023-07-22T00:03:05;18.59;66.89
68026;SHT31;54819;48.030;14.710;2023-07-22T00:05:32;18.55;66.77
68026;SHT31;54819;48.030;14.710;2023-07-22T00:07:59;18.52;66.82
68026;SHT31;54819;48.030;14.710;2023-07-22T00:10:25;18.47;66.79
68026;SHT31;54819;48.030;14.710;2023-07-22T00:12:52;18.43;66.75
68026;SHT31;54819;48.030;14.710;2023-07-22T00:15:19;18.40;66.70
68026;SHT31;54819;48.030;14.710;2023-07-22T00:17:46;18.37;66.78
68026;SHT31;54819;48.030;14.710;2023-07-22T00:20:13;18.36;66.74
68026;SHT31;54819;48.030;14.710;2023-07-22T00:22:43;18.38;66.69
68026;SHT31;54819;48.030;14.710;2023-07-22T00:25:10;18.39;66.86
68026;SHT31;54819;48.030;14.710;2023-07-22T00:27:38;18.41;67.05
68026;SHT31;54819;48.030;14.710;2023-07-22T00:30:06;18.45;67.06
68026;SHT31;54819;48.030;14.710;2023-07-22T00:32:34;18.48;67.13
68026;SHT31;54819;48.030;14.710;2023-07-22T00:35:04;18.53;67.24
68026;SHT31;54819;48.030;14.710;2023-07-22T00:37:32;18.58;67.11
68026;SHT31;54819;48.030;14.710;2023-07-22T00:40:00;18.62;67.00
68026;SHT31;54819;48.030;14.710;2023-07-22T00:42:27;18.65;66.90
68026;SHT31;54819;48.030;14.710;2023-07-22T00:44:54;18.67;66.74
68026;SHT31;54819;48.030;14.710;2023-07-22T00:47:21;18.70;66.69
68026;SHT31;54819;48.030;14.710;2023-07-22T00:49:49;18.71;66.57
68026;SHT31;54819;48.030;14.710;2023-07-22T00:52:16;18.74;66.58
68026;SHT31;54819;48.030;14.710;2023-07-22T00:54:44;18.75;66.64
68026;SHT31;54819;48.030;14.710;2023-07-22T00:57:12;18.76;66.72
68026;SHT31;54819;48.030;14.710;2023-07-22T00:59:39;18.77;66.72
68026;SHT31;54819;48.030;14.710;2023-07-22T01:02:07;18.77;66.77
68026;SHT31;54819;48.030;14.710;2023-07-22T01:04:34;18.79;66.68
68026;SHT31;54819;48.030;14.710;2023-07-22T01:07:03;18.81;66.54
68026;SHT31;54819;48.030;14.710;2023-07-22T01:09:34;18.83;66.42
68026;SHT31;54819;48.030;14.710;2023-07-22T01:12:04;18.86;66.24
68026;SHT31;54819;48.030;14.710;2023-07-22T01:14:36;18.89;66.06
68026;SHT31;54819;48.030;14.710;2023-07-22T01:17:04;18.92;65.85
68026;SHT31;54819;48.030;14.710;2023-07-22T01:19:34;18.93;65.57
68026;SHT31;54819;48.030;14.710;2023-07-22T01:22:05;18.95;65.51
68026;SHT31;54819;48.030;14.710;2023-07-22T01:24:36;18.95;65.43
68026;SHT31;54819;48.030;14.710;2023-07-22T01:27:05;18.95;65.35
68026;SHT31;54819;48.030;14.710;2023-07-22T01:29:34;18.93;65.34
68026;SHT31;54819;48.030;14.710;2023-07-22T01:32:02;18.92;65.30
68026;SHT31;54819;48.030;14.710;2023-07-22T01:34:28;18.90;65.35
68026;SHT31;54819;48.030;14.710;2023-07-22T01:36:56;18.87;65.44
68026;SHT31;54819;48.030;14.710;2023-07-22T01:39:23;18.87;65.62
68026;SHT31;54819;48.030;14.710;2023-07-22T01:41:49;18.85;65.76
68026;SHT31;54819;48.030;14.710;2023-07-22T01:44:16;18.81;65.85
68026;SHT31;54819;48.030;14.710;2023-07-22T01:46:42;18.79;65.96
68026;SHT31;54819;48.030;14.710;2023-07-22T01:49:11;18.76;66.08
68026;SHT31;54819;48.030;14.710;2023-07-22T01:51:39;18.74;66.18
68026;SHT31;54819;48.030;14.710;2023-07-22T01:54:09;18.71;66.30
68026;SHT31;54819;48.030;14.710;2023-07-22T01:56:37;18.66;66.29
68026;SHT31;54819;48.030;14.710;2023-07-22T01:59:05;18.60;66.30
68026;SHT31;54819;48.030;14.710;2023-07-22T02:01:32;18.53;66.32
68026;SHT31;54819;48.030;14.710;2023-07-22T02:03:59;18.45;66.36
68026;SHT31;54819;48.030;14.710;2023-07-22T02:06:27;18.39;66.52
68026;SHT31;54819;48.030;14.710;2023-07-22T02:08:56;18.34;66.66
68026;SHT31;54819;48.030;14.710;2023-07-22T02:11:23;18.31;66.72
68026;SHT31;54819;48.030;14.710;2023-07-22T02:13:50;18.28;66.88
68026;SHT31;54819;48.030;14.710;2023-07-22T02:16:17;18.27;66.91
68026;SHT31;54819;48.030;14.710;2023-07-22T02:18:45;18.25;67.01
68026;SHT31;54819;48.030;14.710;2023-07-22T02:21:12;18.25;66.92
68026;SHT31;54819;48.030;14.710;2023-07-22T02:23:40;18.23;66.85
68026;SHT31;54819;48.030;14.710;2023-07-22T02:26:06;18.21;66.79
68026;SHT31;54819;48.030;14.710;2023-07-22T02:28:33;18.19;66.88
68026;SHT31;54819;48.030;14.710;2023-07-22T02:31:01;18.17;66.75
68026;SHT31;54819;48.030;14.710;2023-07-22T02:33:34;18.16;66.68
68026;SHT31;54819;48.030;14.710;2023-07-22T02:36:01;18.16;66.75
68026;SHT31;54819;48.030;14.710;2023-07-22T02:38:27;18.16;66.75
68026;SHT31;54819;48.030;14.710;2023-07-22T02:40:54;18.16;66.53
68026;SHT31;54819;48.030;14.710;2023-07-22T02:43:25;18.15;66.47
68026;SHT31;54819;48.030;14.710;2023-07-22T02:45:52;18.16;66.33
68026;SHT31;54819;48.030;14.710;2023-07-22T02:48:20;18.16;66.33
68026;SHT31;54819;48.030;14.710;2023-07-22T02:50:46;18.17;66.12
68026;SHT31;54819;48.030;14.710;2023-07-22T02:53:13;18.18;66.05
68026;SHT31;54819;48.030;14.710;2023-07-22T02:55:40;18.21;66.08
68026;SHT31;54819;48.030;14.710;2023-07-22T02:58:06;18.20;66.18
68026;SHT31;54819;48.030;14.710;2023-07-22T03:00:33;18.19;66.11
68026;SHT31;54819;48.030;14.710;2023-07-22T03:03:00;18.19;66.02
68026;SHT31;54819;48.030;14.710;2023-07-22T03:05:28;18.18;66.07
68026;SHT31;54819;48.030;14.710;2023-07-22T03:07:56;18.19;66.11
68026;SHT31;54819;48.030;14.710;2023-07-22T03:10:23;18.19;66.05
68026;SHT31;54819;48.030;14.710;2023-07-22T03:12:55;18.18;66.02
68026;SHT31;54819;48.030;14.710;2023-07-22T03:15:23;18.15;66.08
68026;SHT31;54819;48.030;14.710;2023-07-22T03:17:53;18.11;66.22
68026;SHT31;54819;48.030;14.710;2023-07-22T03:20:20;18.07;66.36
68026;SHT31;54819;48.030;14.710;2023-07-22T03:22:48;18.02;66.51
68026;SHT31;54819;48.030;14.710;2023-07-22T03:25:15;17.99;66.74
68026;SHT31;54819;48.030;14.710;2023-07-22T03:27:43;17.95;66.93
68026;SHT31;54819;48.030;14.710;2023-07-22T03:30:15;17.90;67.01
68026;SHT31;54819;48.030;14.710;2023-07-22T03:32:47;17.87;67.20
68026;SHT31;54819;48.030;14.710;2023-07-22T03:35:15;17.83;67.49
68026;SHT31;54819;48.030;14.710;2023-07-22T03:37:45;17.79;67.57
68026;SHT31;54819;48.030;14.710;2023-07-22T03:40:12;17.73;67.76
68026;SHT31;54819;48.030;14.710;2023-07-22T03:42:54;17.67;67.73
68026;SHT31;54819;48.030;14.710;2023-07-22T03:45:22;17.62;67.81
68026;SHT31;54819;48.030;14.710;2023-07-22T03:47:59;17.57;67.85
68026;SHT31;54819;48.030;14.710;2023-07-22T03:50:27;17.52;67.85
68026;SHT31;54819;48.030;14.710;2023-07-22T03:52:54;17.47;67.99
68026;SHT31;54819;48.030;14.710;2023-07-22T03:55:21;17.45;67.93
68026;SHT31;54819;48.030;14.710;2023-07-22T03:57:48;17.40;67.86
68026;SHT31;54819;48.030;14.710;2023-07-22T04:00:15;17.40;67.79
68026;SHT31;54819;48.030;14.710;2023-07-22T04:02:41;17.39;67.85
68026;SHT31;54819;48.030;14.710;2023-07-22T04:05:09;17.39;67.85
68026;SHT31;54819;48.030;14.710;2023-07-22T04:07:38;17.41;67.91
68026;SHT31;54819;48.030;14.710;2023-07-22T04:10:05;17.40;67.96
68026;SHT31;54819;48.030;14.710;2023-07-22T04:12:32;17.40;67.91
68026;SHT31;54819;48.030;14.710;2023-07-22T04:14:59;17.41;68.01
68026;SHT31;54819;48.030;14.710;2023-07-22T04:17:27;17.42;68.16
68026;SHT31;54819;48.030;14.710;2023-07-22T04:19:54;17.45;68.14
68026;SHT31;54819;48.030;14.710;2023-07-22T04:22:21;17.46;68.17
68026;SHT31;54819;48.030;14.710;2023-07-22T04:24:48;17.48;68.32
68026;SHT31;54819;48.030;14.710;2023-07-22T04:27:16;17.51;68.28
68026;SHT31;54819;48.030;14.710;2023-07-22T04:29:44;17.51;68.23
68026;SHT31;54819;48.030;14.710;2023-07-22T04:32:11;17.52;68.10
68026;SHT31;54819;48.030;14.710;2023-07-22T04:34:38;17.55;68.02
68026;SHT31;54819;48.030;14.710;2023-07-22T04:37:06;17.59;68.07
68026;SHT31;54819;48.030;14.710;2023-07-22T04:39:33;17.62;68.08
68026;SHT31;54819;48.030;14.710;2023-07-22T04:41:59;17.67;68.03
68026;SHT31;54819;48.030;14.710;2023-07-22T04:44:26;17.73;67.96
68026;SHT31;54819;48.030;14.710;2023-07-22T04:46:53;17.76;67.70
68026;SHT31;54819;48.030;14.710;2023-07-22T04:49:21;17.80;67.57
68026;SHT31;54819;48.030;14.710;2023-07-22T04:51:48;17.88;67.64
68026;SHT31;54819;48.030;14.710;2023-07-22T04:54:15;17.97;67.59
68026;SHT31;54819;48.030;14.710;2023-07-22T04:56:42;18.05;67.29
68026;SHT31;54819;48.030;14.710;2023-07-22T04:59:09;18.11;67.24
68026;SHT31;54819;48.030;14.710;2023-07-22T05:01:37;18.12;66.99
68026;SHT31;54819;48.030;14.710;2023-07-22T05:04:03;18.14;66.73
68026;SHT31;54819;48.030;14.710;2023-07-22T05:06:32;18.21;66.52
68026;SHT31;54819;48.030;14.710;2023-07-22T05:08:59;18.35;66.35
68026;SHT31;54819;48.030;14.710;2023-07-22T05:11:26;18.43;66.13
68026;SHT31;54819;48.030;14.710;2023-07-22T05:13:53;18.50;66.15
68026;SHT31;54819;48.030;14.710;2023-07-22T05:16:19;18.50;66.07
68026;SHT31;54819;48.030;14.710;2023-07-22T05:18:48;18.53;65.98
68026;SHT31;54819;48.030;14.710;2023-07-22T05:21:15;18.54;65.81
68026;SHT31;54819;48.030;14.710;2023-07-22T05:23:41;18.60;65.80
68026;SHT31;54819;48.030;14.710;2023-07-22T05:26:08;18.77;65.41
68026;SHT31;54819;48.030;14.710;2023-07-22T05:28:35;19.09;64.87
68026;SHT31;54819;48.030;14.710;2023-07-22T05:31:01;19.41;64.43
68026;SHT31;54819;48.030;14.710;2023-07-22T05:33:28;19.68;63.74
68026;SHT31;54819;48.030;14.710;2023-07-22T05:35:55;19.82;62.47
68026;SHT31;54819;48.030;14.710;2023-07-22T05:38:22;19.84;62.54
68026;SHT31;54819;48.030;14.710;2023-07-22T05:40:49;19.92;62.73
68026;SHT31;54819;48.030;14.710;2023-07-22T05:43:15;20.01;62.45
68026;SHT31;54819;48.030;14.710;2023-07-22T05:45:42;20.10;62.14
68026;SHT31;54819;48.030;14.710;2023-07-22T05:48:09;20.22;62.06
68026;SHT31;54819;48.030;14.710;2023-07-22T05:50:36;20.32;61.46
68026;SHT31;54819;48.030;14.710;2023-07-22T05:53:03;20.44;61.44
68026;SHT31;54819;48.030;14.710;2023-07-22T05:55:29;20.54;61.12
68026;SHT31;54819;48.030;14.710;2023-07-22T05:57:56;20.53;60.43
68026;SHT31;54819;48.030;14.710;2023-07-22T06:00:23;20.54;60.37
68026;SHT31;54819;48.030;14.710;2023-07-22T06:02:50;20.57;60.04
68026;SHT31;54819;48.030;14.710;2023-07-22T06:05:16;20.59;59.74
68026;SHT31;54819;48.030;14.710;2023-07-22T06:07:43;20.58;59.49
68026;SHT31;54819;48.030;14.710;2023-07-22T06:10:10;20.60;59.76
68026;SHT31;54819;48.030;14.710;2023-07-22T06:12:37;20.60;59.65
68026;SHT31;54819;48.030;14.710;2023-07-22T06:15:05;20.65;59.76
68026;SHT31;54819;48.030;14.710;2023-07-22T06:17:33;20.74;59.61
68026;SHT31;54819;48.030;14.710;2023-07-22T06:20:00;20.87;58.95
68026;SHT31;54819;48.030;14.710;2023-07-22T06:22:27;21.00;59.12
68026;SHT31;54819;48.030;14.710;2023-07-22T06:24:54;21.14;59.43
68026;SHT31;54819;48.030;14.710;2023-07-22T06:27:21;21.27;59.02
68026;SHT31;54819;48.030;14.710;2023-07-22T06:29:48;21.43;58.76
68026;SHT31;54819;48.030;14.710;2023-07-22T06:32:15;21.56;58.41
68026;SHT31;54819;48.030;14.710;2023-07-22T06:34:41;21.71;58.29
68026;SHT31;54819;48.030;14.710;2023-07-22T06:37:08;21.82;57.69
68026;SHT31;54819;48.030;14.710;2023-07-22T06:39:35;21.75;57.17
68026;SHT31;54819;48.030;14.710;2023-07-22T06:42:01;21.65;56.75
68026;SHT31;54819;48.030;14.710;2023-07-22T06:44:29;21.66;57.09
68026;SHT31;54819;48.030;14.710;2023-07-22T06:46:57;21.67;56.40
68026;SHT31;54819;48.030;14.710;2023-07-22T06:49:24;21.72;56.71
68026;SHT31;54819;48.030;14.710;2023-07-22T06:51:50;21.76;56.55
68026;SHT31;54819;48.030;14.710;2023-07-22T06:54:18;21.81;56.51
68026;SHT31;54819;48.030;14.710;2023-07-22T06:56:45;21.88;56.15
68026;SHT31;54819;48.030;14.710;2023-07-22T06:59:11;21.89;56.39
68026;SHT31;54819;48.030;14.710;2023-07-22T07:01:38;21.78;56.50
68026;SHT31;54819;48.030;14.710;2023-07-22T07:04:05;21.72;56.11
68026;SHT31;54819;48.030;14.710;2023-07-22T07:06:32;21.69;56.40
68026;SHT31;54819;48.030;14.710;2023-07-22T07:08:59;21.71;56.63
68026;SHT31;54819;48.030;14.710;2023-07-22T07:11:30;21.70;56.29
68026;SHT31;54819;48.030;14.710;2023-07-22T07:13:57;21.74;56.13
68026;SHT31;54819;48.030;14.710;2023-07-22T07:16:25;21.77;56.39
68026;SHT31;54819;48.030;14.710;2023-07-22T07:18:54;21.79;56.00
68026;SHT31;54819;48.030;14.710;2023-07-22T07:21:22;21.66;56.30
68026;SHT31;54819;48.030;14.710;2023-07-22T07:23:49;21.58;56.46
68026;SHT31;54819;48.030;14.710;2023-07-22T07:26:18;21.57;56.53
68026;SHT31;54819;48.030;14.710;2023-07-22T07:28:46;21.64;56.83
68026;SHT31;54819;48.030;14.710;2023-07-22T07:31:13;21.70;56.80
68026;SHT31;54819;48.030;14.710;2023-07-22T07:33:40;21.74;56.80
68026;SHT31;54819;48.030;14.710;2023-07-22T07:36:07;21.78;56.60
68026;SHT31;54819;48.030;14.710;2023-07-22T07:38:33;21.85;56.92
68026;SHT31;54819;48.030;14.710;2023-07-22T07:41:02;21.90;56.18
68026;SHT31;54819;48.030;14.710;2023-07-22T07:43:29;21.84;55.93
68026;SHT31;54819;48.030;14.710;2023-07-22T07:48:44;21.84;56.45
68026;SHT31;54819;48.030;14.710;2023-07-22T07:51:12;21.92;56.46
68026;SHT31;54819;48.030;14.710;2023-07-22T07:53:44;21.94;55.31
68026;SHT31;54819;48.030;14.710;2023-07-22T07:56:12;21.99;55.39
68026;SHT31;54819;48.030;14.710;2023-07-22T07:58:39;22.07;55.36
68026;SHT31;54819;48.030;14.710;2023-07-22T08:01:06;22.05;55.12
68026;SHT31;54819;48.030;14.710;2023-07-22T08:03:34;22.07;55.09
68026;SHT31;54819;48.030;14.710;2023-07-22T08:06:02;22.10;54.60
68026;SHT31;54819;48.030;14.710;2023-07-22T08:08:29;22.14;54.33
68026;SHT31;54819;48.030;14.710;2023-07-22T08:11:03;22.16;54.55
68026;SHT31;54819;48.030;14.710;2023-07-22T08:13:37;22.25;55.11
68026;SHT31;54819;48.030;14.710;2023-07-22T08:16:05;22.34;55.28
68026;SHT31;54819;48.030;14.710;2023-07-22T08:18:33;22.41;54.36
68026;SHT31;54819;48.030;14.710;2023-07-22T08:21:01;22.43;54.30
68026;SHT31;54819;48.030;14.710;2023-07-22T08:23:30;22.45;54.02
68026;SHT31;54819;48.030;14.710;2023-07-22T08:25:57;22.53;54.08
68026;SHT31;54819;48.030;14.710;2023-07-22T08:28:23;22.49;53.77
68026;SHT31;54819;48.030;14.710;2023-07-22T08:30:53;22.45;53.69
68026;SHT31;54819;48.030;14.710;2023-07-22T08:33:24;22.42;54.14
68026;SHT31;54819;48.030;14.710;2023-07-22T08:36:06;22.52;54.20
68026;SHT31;54819;48.030;14.710;2023-07-22T08:38:33;22.52;53.26
68026;SHT31;54819;48.030;14.710;2023-07-22T08:40:59;22.64;53.38
68026;SHT31;54819;48.030;14.710;2023-07-22T08:43:27;22.74;53.09
68026;SHT31;54819;48.030;14.710;2023-07-22T08:45:55;22.72;52.10
68026;SHT31;54819;48.030;14.710;2023-07-22T08:48:29;22.85;52.78
68026;SHT31;54819;48.030;14.710;2023-07-22T08:51:03;22.90;51.77
68026;SHT31;54819;48.030;14.710;2023-07-22T08:53:49;22.97;52.36
68026;SHT31;54819;48.030;14.710;2023-07-22T08:56:19;22.97;50.21
68026;SHT31;54819;48.030;14.710;2023-07-22T08:58:46;23.06;49.69
68026;SHT31;54819;48.030;14.710;2023-07-22T09:01:15;23.22;50.06
68026;SHT31;54819;48.030;14.710;2023-07-22T09:03:42;23.34;50.13
68026;SHT31;54819;48.030;14.710;2023-07-22T09:06:10;23.52;50.66
68026;SHT31;54819;48.030;14.710;2023-07-22T09:08:37;23.66;49.91
68026;SHT31;54819;48.030;14.710;2023-07-22T09:11:05;23.79;49.90
68026;SHT31;54819;48.030;14.710;2023-07-22T09:13:33;23.92;49.06
68026;SHT31;54819;48.030;14.710;2023-07-22T09:16:00;23.77;48.41
68026;SHT31;54819;48.030;14.710;2023-07-22T09:18:28;23.65;49.50
68026;SHT31;54819;48.030;14.710;2023-07-22T09:20:55;23.57;48.47
68026;SHT31;54819;48.030;14.710;2023-07-22T09:23:34;23.60;49.07
68026;SHT31;54819;48.030;14.710;2023-07-22T09:26:09;23.75;49.75
68026;SHT31;54819;48.030;14.710;2023-07-22T09:31:17;23.99;50.24
68026;SHT31;54819;48.030;14.710;2023-07-22T09:33:43;24.07;49.10
68026;SHT31;54819;48.030;14.710;2023-07-22T09:36:10;24.16;48.48
68026;SHT31;54819;48.030;14.710;2023-07-22T09:38:38;24.19;47.61
68026;SHT31;54819;48.030;14.710;2023-07-22T09:41:05;24.26;47.54
68026;SHT31;54819;48.030;14.710;2023-07-22T09:43:35;24.32;46.83
68026;SHT31;54819;48.030;14.710;2023-07-22T09:46:07;24.48;47.93
68026;SHT31;54819;48.030;14.710;2023-07-22T09:48:45;24.48;46.71
68026;SHT31;54819;48.030;14.710;2023-07-22T09:51:13;24.59;47.12
68026;SHT31;54819;48.030;14.710;2023-07-22T09:53:46;24.73;46.58
68026;SHT31;54819;48.030;14.710;2023-07-22T09:56:13;24.77;46.65
68026;SHT31;54819;48.030;14.710;2023-07-22T09:58:41;24.79;46.50
68026;SHT31;54819;48.030;14.710;2023-07-22T10:01:12;24.82;46.09
68026;SHT31;54819;48.030;14.710;2023-07-22T10:03:44;24.73;46.27
68026;SHT31;54819;48.030;14.710;2023-07-22T10:06:13;24.75;47.17
68026;SHT31;54819;48.030;14.710;2023-07-22T10:08:42;24.86;47.06
68026;SHT31;54819;48.030;14.710;2023-07-22T10:11:11;24.92;46.67
68026;SHT31;54819;48.030;14.710;2023-07-22T10:13:40;24.90;46.08
68026;SHT31;54819;48.030;14.710;2023-07-22T10:16:08;24.94;46.29
68026;SHT31;54819;48.030;14.710;2023-07-22T10:18:35;24.98;45.95
68026;SHT31;54819;48.030;14.710;2023-07-22T10:21:03;25.08;46.11
68026;SHT31;54819;48.030;14.710;2023-07-22T10:23:31;25.24;45.75
68026;SHT31;54819;48.030;14.710;2023-07-22T10:25:59;25.39;45.39
68026;SHT31;54819;48.030;14.710;2023-07-22T10:28:26;25.59;45.63
68026;SHT31;54819;48.030;14.710;2023-07-22T10:30:54;25.82;45.64
68026;SHT31;54819;48.030;14.710;2023-07-22T10:33:21;25.98;44.39
68026;SHT31;54819;48.030;14.710;2023-07-22T10:36:12;25.91;43.93
68026;SHT31;54819;48.030;14.710;2023-07-22T10:38:39;25.87;44.45
68026;SHT31;54819;48.030;14.710;2023-07-22T10:41:15;25.85;44.28
68026;SHT31;54819;48.030;14.710;2023-07-22T10:43:53;25.77;44.13
68026;SHT31;54819;48.030;14.710;2023-07-22T10:46:31;25.81;44.41
68026;SHT31;54819;48.030;14.710;2023-07-22T10:51:50;26.08;44.26
68026;SHT31;54819;48.030;14.710;2023-07-22T10:54:31;26.15;43.56
68026;SHT31;54819;48.030;14.710;2023-07-22T10:57:03;26.18;42.70
68026;SHT31;54819;48.030;14.710;2023-07-22T10:59:50;26.20;43.28
68026;SHT31;54819;48.030;14.710;2023-07-22T11:02:24;26.18;43.34
68026;SHT31;54819;48.030;14.710;2023-07-22T11:04:52;26.13;43.53
68026;SHT31;54819;48.030;14.710;2023-07-22T11:07:43;26.18;43.52
68026;SHT31;54819;48.030;14.710;2023-07-22T11:10:14;25.83;43.01
68026;SHT31;54819;48.030;14.710;2023-07-22T11:12:43;25.55;43.67
68026;SHT31;54819;48.030;14.710;2023-07-22T11:15:11;25.44;44.11
68026;SHT31;54819;48.030;14.710;2023-07-22T11:17:41;25.50;44.42
68026;SHT31;54819;48.030;14.710;2023-07-22T11:20:08;25.54;44.58
68026;SHT31;54819;48.030;14.710;2023-07-22T11:22:38;25.57;44.32
68026;SHT31;54819;48.030;14.710;2023-07-22T11:25:06;25.72;44.40
68026;SHT31;54819;48.030;14.710;2023-07-22T11:27:33;25.84;43.97
68026;SHT31;54819;48.030;14.710;2023-07-22T11:30:02;25.93;43.86
68026;SHT31;54819;48.030;14.710;2023-07-22T11:32:31;26.00;43.78
68026;SHT31;54819;48.030;14.710;2023-07-22T11:34:58;26.16;43.99
68026;SHT31;54819;48.030;14.710;2023-07-22T11:37:27;26.32;43.52
68026;SHT31;54819;48.030;14.710;2023-07-22T11:39:59;26.37;42.99
68026;SHT31;54819;48.030;14.710;2023-07-22T11:42:27;26.38;42.59
68026;SHT31;54819;48.030;14.710;2023-07-22T11:44:54;26.32;42.72
68026;SHT31;54819;48.030;14.710;2023-07-22T11:47:28;26.16;42.97
68026;SHT31;54819;48.030;14.710;2023-07-22T11:49:56;26.08;43.75
68026;SHT31;54819;48.030;14.710;2023-07-22T11:52:22;26.07;43.76
68026;SHT31;54819;48.030;14.710;2023-07-22T11:54:49;26.05;43.87
68026;SHT31;54819;48.030;14.710;2023-07-22T11:59:50;26.10;43.52
68026;SHT31;54819;48.030;14.710;2023-07-22T12:05:01;26.19;43.86
68026;SHT31;54819;48.030;14.710;2023-07-22T12:07:30;26.27;44.25
68026;SHT31;54819;48.030;14.710;2023-07-22T12:10:01;26.35;43.93
68026;SHT31;54819;48.030;14.710;2023-07-22T12:15:13;26.44;43.71
68026;SHT31;54819;48.030;14.710;2023-07-22T12:17:55;26.60;43.58
68026;SHT31;54819;48.030;14.710;2023-07-22T12:20:31;26.76;42.94
68026;SHT31;54819;48.030;14.710;2023-07-22T12:22:59;26.83;42.79
68026;SHT31;54819;48.030;14.710;2023-07-22T12:25:26;26.87;42.59
68026;SHT31;54819;48.030;14.710;2023-07-22T12:27:54;26.91;42.57
68026;SHT31;54819;48.030;14.710;2023-07-22T12:30:20;27.09;42.85
68026;SHT31;54819;48.030;14.710;2023-07-22T12:32:48;27.35;42.48
68026;SHT31;54819;48.030;14.710;2023-07-22T12:35:15;27.50;42.03
68026;SHT31;54819;48.030;14.710;2023-07-22T12:37:42;27.49;41.75
68026;SHT31;54819;48.030;14.710;2023-07-22T12:40:10;27.26;41.71
68026;SHT31;54819;48.030;14.710;2023-07-22T12:42:39;27.21;42.07
68026;SHT31;54819;48.030;14.710;2023-07-22T12:45:07;27.41;42.31
68026;SHT31;54819;48.030;14.710;2023-07-22T12:47:34;27.49;41.43
68026;SHT31;54819;48.030;14.710;2023-07-22T12:50:02;27.53;42.00
68026;SHT31;54819;48.030;14.710;2023-07-22T12:52:29;27.71;42.23
68026;SHT31;54819;48.030;14.710;2023-07-22T12:54:55;27.90;41.15
68026;SHT31;54819;48.030;14.710;2023-07-22T12:57:22;28.09;41.05
68026;SHT31;54819;48.030;14.710;2023-07-22T12:59:49;28.29;40.70
68026;SHT31;54819;48.030;14.710;2023-07-22T13:02:16;28.40;40.42
68026;SHT31;54819;48.030;14.710;2023-07-22T13:04:43;28.47;39.81
68026;SHT31;54819;48.030;14.710;2023-07-22T13:07:11;28.47;40.09
68026;SHT31;54819;48.030;14.710;2023-07-22T13:09:38;28.45;40.35
68026;SHT31;54819;48.030;14.710;2023-07-22T13:12:22;28.40;40.25
68026;SHT31;54819;48.030;14.710;2023-07-22T13:14:48;28.27;39.61
68026;SHT31;54819;48.030;14.710;2023-07-22T13:17:15;28.18;39.96
68026;SHT31;54819;48.030;14.710;2023-07-22T13:19:42;28.09;39.81
68026;SHT31;54819;48.030;14.710;2023-07-22T13:22:08;28.02;39.04
68026;SHT31;54819;48.030;14.710;2023-07-22T13:24:35;27.93;39.27
68026;SHT31;54819;48.030;14.710;2023-07-22T13:27:02;27.83;39.02
68026;SHT31;54819;48.030;14.710;2023-07-22T13:29:30;27.83;39.22
68026;SHT31;54819;48.030;14.710;2023-07-22T13:31:57;27.83;39.72
68026;SHT31;54819;48.030;14.710;2023-07-22T13:34:23;27.79;40.00
68026;SHT31;54819;48.030;14.710;2023-07-22T13:36:50;27.87;40.05
68026;SHT31;54819;48.030;14.710;2023-07-22T13:39:17;27.91;39.59
68026;SHT31;54819;48.030;14.710;2023-07-22T13:41:43;28.03;39.97
68026;SHT31;54819;48.030;14.710;2023-07-22T13:44:10;28.04;39.78
68026;SHT31;54819;48.030;14.710;2023-07-22T13:46:37;27.86;39.53
68026;SHT31;54819;48.030;14.710;2023-07-22T13:49:04;27.79;39.86
68026;SHT31;54819;48.030;14.710;2023-07-22T13:51:30;27.69;39.50
68026;SHT31;54819;48.030;14.710;2023-07-22T13:53:57;27.64;39.62
68026;SHT31;54819;48.030;14.710;2023-07-22T13:56:25;27.58;39.73
68026;SHT31;54819;48.030;14.710;2023-07-22T13:58:53;27.58;40.37
68026;SHT31;54819;48.030;14.710;2023-07-22T14:01:20;27.62;40.26
68026;SHT31;54819;48.030;14.710;2023-07-22T14:03:47;27.68;40.54
68026;SHT31;54819;48.030;14.710;2023-07-22T14:06:14;27.77;40.34
68026;SHT31;54819;48.030;14.710;2023-07-22T14:08:41;27.80;40.16
68026;SHT31;54819;48.030;14.710;2023-07-22T14:11:08;27.74;39.87
68026;SHT31;54819;48.030;14.710;2023-07-22T14:13:35;27.58;40.17
68026;SHT31;54819;48.030;14.710;2023-07-22T14:16:02;27.34;40.73
68026;SHT31;54819;48.030;14.710;2023-07-22T14:18:46;27.12;41.36
68026;SHT31;54819;48.030;14.710;2023-07-22T14:21:14;27.01;41.33
68026;SHT31;54819;48.030;14.710;2023-07-22T14:23:41;27.03;41.45
68026;SHT31;54819;48.030;14.710;2023-07-22T14:26:09;27.15;41.47
68026;SHT31;54819;48.030;14.710;2023-07-22T14:28:36;27.27;41.14
68026;SHT31;54819;48.030;14.710;2023-07-22T14:31:03;27.38;40.28
68026;SHT31;54819;48.030;14.710;2023-07-22T14:33:30;27.39;40.38
68026;SHT31;54819;48.030;14.710;2023-07-22T14:35:57;27.39;40.58
68026;SHT31;54819;48.030;14.710;2023-07-22T14:38:24;27.36;40.45
68026;SHT31;54819;48.030;14.710;2023-07-22T14:40:50;27.25;40.39
68026;SHT31;54819;48.030;14.710;2023-07-22T14:43:17;27.07;40.91
68026;SHT31;54819;48.030;14.710;2023-07-22T14:45:48;26.96;41.00
68026;SHT31;54819;48.030;14.710;2023-07-22T14:48:14;26.93;41.10
68026;SHT31;54819;48.030;14.710;2023-07-22T14:50:41;26.94;41.25
68026;SHT31;54819;48.030;14.710;2023-07-22T14:53:08;26.90;41.56
68026;SHT31;54819;48.030;14.710;2023-07-22T14:55:34;26.84;41.65
68026;SHT31;54819;48.030;14.710;2023-07-22T14:58:01;26.70;41.60
68026;SHT31;54819;48.030;14.710;2023-07-22T15:00:28;26.54;42.10
68026;SHT31;54819;48.030;14.710;2023-07-22T15:02:55;26.45;42.23
68026;SHT31;54819;48.030;14.710;2023-07-22T15:05:22;26.39;42.57
68026;SHT31;54819;48.030;14.710;2023-07-22T15:07:48;26.37;42.69
68026;SHT31;54819;48.030;14.710;2023-07-22T15:10:15;26.39;42.95
68026;SHT31;54819;48.030;14.710;2023-07-22T15:12:42;26.46;42.56
68026;SHT31;54819;48.030;14.710;2023-07-22T15:15:11;26.43;42.51
68026;SHT31;54819;48.030;14.710;2023-07-22T15:17:38;26.47;42.53
68026;SHT31;54819;48.030;14.710;2023-07-22T15:20:05;26.50;42.52
68026;SHT31;54819;48.030;14.710;2023-07-22T15:22:32;26.46;42.80
68026;SHT31;54819;48.030;14.710;2023-07-22T15:24:59;26.50;42.84
68026;SHT31;54819;48.030;14.710;2023-07-22T15:27:26;26.47;42.19
68026;SHT31;54819;48.030;14.710;2023-07-22T15:29:53;26.32;42.49
68026;SHT31;54819;48.030;14.710;2023-07-22T15:32:19;26.27;42.85
68026;SHT31;54819;48.030;14.710;2023-07-22T15:34:46;26.23;42.72
68026;SHT31;54819;48.030;14.710;2023-07-22T15:37:13;26.25;43.06